Time;durP1;ratioP1;P1;durP2;ratioP2;P2;SDS_P1;SDS_P2;PMS_P1;PMS_P2;Temp;Humidity;BMP_temperature;BMP_pressure;BME280_temperature;BME280_humidity;BME280_pressure;Samples;Min_cycle;Max_cycle;Signal;HPM_P1;HPM_P2
2023/09/11 00:02:12;;;;;;;11.60;5.70;;;;;;;7.62;100.00;101504.22;105581;1262;59615;-50
2023/09/11 00:04:40;;;;;;;6.90;5.50;;;;;;;7.57;100.00;101503.32;105575;1263;72971;-49
2023/09/11 00:07:08;;;;;;;7.00;5.50;;;;;;;7.54;100.00;101502.77;105572;1259;63561;-49
2023/09/11 00:09:35;;;;;;;11.10;5.40;;;;;;;7.52;100.00;101500.52;105535;1257;72646;-50
2023/09/11 00:12:04;;;;;;;10.50;5.60;;;;;;;7.52;100.00;101497.61;105535;1261;61607;-50
2023/09/11 00:14:31;;;;;;;12.20;5.70;;;;;;;7.53;100.00;101495.20;105568;1262;59632;-50
2023/09/11 00:16:59;;;;;;;10.40;6.10;;;;;;;7.54;100.00;101495.21;105573;1258;71775;-50
2023/09/11 00:19:27;;;;;;;12.50;6.20;;;;;;;7.57;100.00;101493.52;105551;1263;64356;-51
2023/09/11 00:21:55;;;;;;;8.70;5.30;;;;;;;7.61;100.00;101492.21;105554;1257;72585;-51
2023/09/11 00:24:23;;;;;;;10.60;6.20;;;;;;;7.63;100.00;101492.05;105623;1263;60707;-51
2023/09/11 00:26:51;;;;;;;6.90;5.70;;;;;;;7.64;100.00;101491.20;105581;1262;59621;-50
2023/09/11 00:29:19;;;;;;;10.00;6.40;;;;;;;7.65;100.00;101490.34;105577;1261;73127;-49
2023/09/11 00:31:47;;;;;;;18.30;7.30;;;;;;;7.67;100.00;101482.11;105438;1257;63190;-49
2023/09/11 00:34:15;;;;;;;28.50;8.20;;;;;;;7.71;100.00;101478.04;105605;1260;72650;-51
2023/09/11 00:36:43;;;;;;;14.00;6.70;;;;;;;7.76;100.00;101476.36;105538;1263;61652;-50
2023/09/11 00:39:11;;;;;;;15.50;7.80;;;;;;;7.79;100.00;101473.46;105630;1258;59991;-50
2023/09/11 00:41:40;;;;;;;17.10;7.70;;;;;;;7.79;100.00;101472.61;105525;1263;71794;-50
2023/09/11 00:44:08;;;;;;;17.50;7.30;;;;;;;7.77;100.00;101468.98;105645;1262;63311;-48
2023/09/11 00:46:36;;;;;;;13.00;7.40;;;;;;;7.76;100.00;101462.62;105594;1257;71426;-50
2023/09/11 00:49:04;;;;;;;15.60;7.40;;;;;;;7.79;100.00;101457.66;105601;1261;59656;-49
2023/09/11 00:51:33;;;;;;;14.50;7.60;;;;;;;7.79;100.00;101454.39;105498;1262;59632;-50
2023/09/11 00:54:00;;;;;;;28.50;7.80;;;;;;;7.78;100.00;101454.21;105620;1259;72986;-49
2023/09/11 00:56:30;;;;;;;15.00;7.50;;;;;;;7.76;100.00;101447.33;105427;1260;64007;-50
2023/09/11 00:58:58;;;;;;;21.70;7.50;;;;;;;7.79;100.00;101447.52;105556;1261;71376;-51
2023/09/11 01:01:26;;;;;;;13.90;7.80;;;;;;;7.82;100.00;101443.93;105641;1257;61627;-51
2023/09/11 01:03:53;;;;;;;19.80;6.90;;;;;;;7.84;100.00;101440.17;105635;1261;59528;-49
2023/09/11 01:06:22;;;;;;;17.10;7.60;;;;;;;7.79;100.00;101436.70;105599;1261;73131;-50
2023/09/11 01:08:54;;;;;;;16.70;8.70;;;;;;;7.73;100.00;101436.14;105623;1256;63141;-51
2023/09/11 01:11:23;;;;;;;28.80;8.20;;;;;;;7.69;100.00;101434.19;105524;1258;72630;-51
2023/09/11 01:13:50;;;;;;;16.60;6.50;;;;;;;7.66;100.00;101430.91;105606;1267;61041;-51
2023/09/11 01:16:22;;;;;;;19.20;7.40;;;;;;;7.60;100.00;101427.92;105595;1259;60097;-50
2023/09/11 01:21:37;;;;;;;12.90;7.60;;;;;;;7.48;100.00;101437.45;102655;1294;601019;-48
2023/09/11 01:24:26;;;;;;;12.40;7.20;;;;;;;7.41;100.00;101431.70;104772;1266;61754;-50
2023/09/11 01:27:16;;;;;;;14.00;7.20;;;;;;;7.40;100.00;101426.86;104764;1271;59286;-50
2023/09/11 01:29:44;;;;;;;11.20;6.90;;;;;;;7.43;100.00;101426.05;104751;1268;70790;-49
2023/09/11 01:32:13;;;;;;;8.40;6.90;;;;;;;7.46;100.00;101427.80;104703;1273;63165;-49
2023/09/11 01:34:41;;;;;;;11.50;6.40;;;;;;;7.50;100.00;101425.09;104582;1269;222207;-50
2023/09/11 01:37:09;;;;;;;16.20;7.80;;;;;;;7.50;100.00;101426.14;105328;1259;59364;-51
2023/09/11 01:39:36;;;;;;;14.10;7.10;;;;;;;7.47;100.00;101424.05;105287;1260;59324;-49
2023/09/11 01:42:07;;;;;;;12.80;6.80;;;;;;;7.48;100.00;101422.85;105203;1264;72237;-49
2023/09/11 01:44:53;;;;;;;9.40;6.80;;;;;;;7.51;100.00;101422.18;105342;1259;63605;-51
2023/09/11 01:47:22;;;;;;;11.80;7.10;;;;;;;7.52;100.00;101421.85;105309;1264;71409;-53
2023/09/11 01:49:50;;;;;;;10.30;7.10;;;;;;;7.53;100.00;101420.66;105333;1264;60540;-49
2023/09/11 01:52:18;;;;;;;11.20;7.60;;;;;;;7.56;100.00;101421.02;105248;1267;59681;-55
2023/09/11 01:54:46;;;;;;;12.10;7.20;;;;;;;7.59;100.00;101422.42;105285;1259;71831;-54
2023/09/11 01:57:14;;;;;;;12.00;6.00;;;;;;;7.60;100.00;101417.80;105218;1261;63152;-52
2023/09/11 01:59:41;;;;;;;16.80;7.00;;;;;;;7.60;100.00;101416.09;105258;1262;71650;-51
2023/09/11 02:02:09;;;;;;;10.20;7.00;;;;;;;7.60;100.00;101415.58;105266;1262;59674;-49
2023/09/11 02:04:37;;;;;;;11.70;7.60;;;;;;;7.59;100.00;101414.53;105332;1260;60003;-49
2023/09/11 02:07:04;;;;;;;11.80;6.50;;;;;;;7.58;100.00;101415.04;105261;1259;71764;-50
2023/09/11 02:09:32;;;;;;;11.10;6.70;;;;;;;7.59;100.00;101412.31;105338;1264;63143;-51
2023/09/11 02:12:00;;;;;;;10.70;6.70;;;;;;;7.67;100.00;101413.39;105287;1261;71745;-50
2023/09/11 02:14:28;;;;;;;11.90;6.70;;;;;;;7.73;100.00;101410.87;105396;1259;61654;-50
2023/09/11 02:17:02;;;;;;;11.70;6.20;;;;;;;7.84;100.00;101406.66;105331;1263;59582;-49
2023/09/11 02:19:31;;;;;;;8.60;7.20;;;;;;;7.89;100.00;101401.89;105309;1264;72420;-48
2023/09/11 02:22:00;;;;;;;15.40;7.40;;;;;;;7.94;100.00;101401.75;105423;1265;63227;-49
2023/09/11 02:24:27;;;;;;;9.50;7.40;;;;;;;7.96;100.00;101404.20;105315;1262;71441;-50
2023/09/11 02:26:55;;;;;;;18.80;8.10;;;;;;;7.95;100.00;101398.48;105266;1265;59664;-51
2023/09/11 02:29:23;;;;;;;10.00;7.30;;;;;;;7.94;100.00;101399.00;105345;1260;60036;-50
2023/09/11 02:31:51;;;;;;;11.60;7.40;;;;;;;7.94;100.00;101394.86;105301;1258;71773;-49
2023/09/11 02:34:19;;;;;;;15.30;6.50;;;;;;;7.94;100.00;101392.64;105339;1259;63688;-49
2023/09/11 02:36:47;;;;;;;12.00;7.50;;;;;;;7.95;100.00;101393.51;105257;1264;71468;-51
2023/09/11 02:39:14;;;;;;;13.20;6.50;;;;;;;7.97;100.00;101392.33;105312;1263;62331;-51
2023/09/11 02:41:42;;;;;;;17.90;6.60;;;;;;;7.98;100.00;101389.77;105288;1258;59623;-50
2023/09/11 02:44:10;;;;;;;10.90;7.80;;;;;;;7.99;100.00;101386.83;105161;1263;71806;-50
2023/09/11 02:46:38;;;;;;;12.80;7.00;;;;;;;7.98;100.00;101387.52;105311;1260;63237;-49
2023/09/11 02:49:06;;;;;;;12.40;6.50;;;;;;;7.93;100.00;101387.13;105199;1265;71466;-50
2023/09/11 02:51:35;;;;;;;26.80;6.50;;;;;;;7.85;100.00;101389.49;105213;1262;61692;-49
2023/09/11 02:54:03;;;;;;;11.70;6.60;;;;;;;7.76;100.00;101390.79;105299;1264;59977;-50
2023/09/11 02:56:31;;;;;;;12.10;7.20;;;;;;;7.72;100.00;101390.25;105326;1263;73011;-50
2023/09/11 02:58:59;;;;;;;8.40;7.10;;;;;;;7.70;100.00;101396.58;105447;1263;63122;-49
2023/09/11 03:01:27;;;;;;;11.30;6.90;;;;;;;7.66;100.00;101396.88;105266;1264;70700;-51
2023/09/11 03:03:56;;;;;;;14.50;6.80;;;;;;;7.60;100.00;101403.36;105247;1265;61752;-50
2023/09/11 03:06:23;;;;;;;18.30;7.40;;;;;;;7.56;100.00;101404.19;105229;1265;60182;-49
2023/09/11 03:08:51;;;;;;;13.40;8.40;;;;;;;7.52;100.00;101402.09;105243;1265;71952;-51
2023/09/11 03:11:19;;;;;;;18.20;8.00;;;;;;;7.50;100.00;101404.99;105318;1265;63259;-51
2023/09/11 03:13:48;;;;;;;8.10;5.60;;;;;;;7.48;100.00;101405.67;105227;1259;71668;-50
2023/09/11 03:16:16;;;;;;;11.80;7.40;;;;;;;7.40;100.00;101406.27;105229;1259;59660;-49
2023/09/11 03:18:48;;;;;;;19.00;7.80;;;;;;;7.27;100.00;101407.52;105353;1259;60384;-50
2023/09/11 03:21:16;;;;;;;19.30;7.10;;;;;;;7.15;100.00;101408.93;105320;1259;73018;-50
2023/09/11 03:23:44;;;;;;;12.50;7.10;;;;;;;7.07;100.00;101411.94;105264;1264;64392;-49
2023/09/11 03:26:16;;;;;;;13.90;7.20;;;;;;;7.01;100.00;101412.90;105323;1264;72370;-50
2023/09/11 03:28:50;;;;;;;16.10;7.30;;;;;;;6.99;100.00;101414.25;105287;1263;61682;-50
2023/09/11 03:31:21;;;;;;;17.60;7.70;;;;;;;6.97;100.00;101414.91;105349;1263;59597;-51
2023/09/11 03:33:49;;;;;;;9.40;7.10;;;;;;;6.95;100.00;101417.65;105398;1265;71820;-51
2023/09/11 03:36:18;;;;;;;14.90;9.60;;;;;;;6.93;100.00;101417.08;105277;1265;62578;-51
2023/09/11 03:38:46;;;;;;;15.50;8.30;;;;;;;6.96;100.00;101416.96;105301;1268;72645;-50
2023/09/11 03:41:14;;;;;;;8.80;6.50;;;;;;;6.99;100.00;101417.69;105240;1263;61664;-50
2023/09/11 03:43:42;;;;;;;12.40;6.90;;;;;;;6.98;100.00;101417.67;105272;1260;59630;-50
2023/09/11 03:46:12;;;;;;;12.00;8.50;;;;;;;6.96;100.00;101418.01;105226;1264;71665;-52
2023/09/11 03:48:41;;;;;;;13.80;6.90;;;;;;;6.99;100.00;101417.85;105298;1265;64822;-51
2023/09/11 03:51:10;;;;;;;15.10;7.50;;;;;;;7.07;100.00;101418.11;105237;1264;70468;-50
2023/09/11 03:53:42;;;;;;;40.50;16.30;;;;;;;7.12;100.00;101416.80;105255;1262;60949;-50
2023/09/11 03:56:12;;;;;;;22.50;10.70;;;;;;;7.20;100.00;101414.65;105299;1259;59703;-49
2023/09/11 03:58:42;;;;;;;14.30;7.90;;;;;;;7.26;100.00;101413.85;105308;1264;72981;-50
2023/09/11 04:01:10;;;;;;;11.50;8.10;;;;;;;7.31;100.00;101409.79;105274;1263;63008;-52
2023/09/11 04:03:40;;;;;;;14.40;7.70;;;;;;;7.39;100.00;101407.98;105242;1264;73771;-50
2023/09/11 04:06:08;;;;;;;21.40;8.10;;;;;;;7.49;100.00;101407.05;105264;1264;60402;-51
2023/09/11 04:08:35;;;;;;;19.00;7.90;;;;;;;7.64;100.00;101403.23;105257;1264;59886;-50
2023/09/11 04:11:03;;;;;;;13.50;8.40;;;;;;;7.82;100.00;101393.76;105263;1264;73053;-50
2023/09/11 04:13:31;;;;;;;16.10;9.90;;;;;;;7.99;100.00;101393.89;105232;1261;63665;-51
2023/09/11 04:15:58;;;;;;;21.40;9.40;;;;;;;8.13;100.00;101392.09;105349;1264;71467;-49
2023/09/11 04:18:26;;;;;;;14.40;8.60;;;;;;;8.26;100.00;101388.74;105234;1262;61674;-53
2023/09/11 04:21:03;;;;;;;17.30;7.80;;;;;;;8.40;100.00;101389.84;105302;1265;59597;-54
2023/09/11 04:23:32;;;;;;;18.90;6.90;;;;;;;8.57;100.00;101392.38;105142;1263;71205;-50
2023/09/11 04:26:00;;;;;;;17.10;7.70;;;;;;;8.76;100.00;101389.20;105180;1265;64497;-55
2023/09/11 04:28:29;;;;;;;18.60;8.00;;;;;;;8.98;100.00;101389.78;105277;1272;71625;-52
2023/09/11 04:30:57;;;;;;;16.80;7.40;;;;;;;9.22;100.00;101387.09;105223;1264;61633;-53
2023/09/11 04:33:25;;;;;;;19.50;8.50;;;;;;;9.46;100.00;101390.23;105278;1271;59536;-51
2023/09/11 04:35:53;;;;;;;17.50;8.20;;;;;;;9.73;100.00;101389.21;105256;1260;71845;-51
2023/09/11 04:38:21;;;;;;;15.90;8.20;;;;;;;10.01;100.00;101388.67;105292;1265;63564;-49
2023/09/11 04:40:54;;;;;;;10.70;8.10;;;;;;;10.31;100.00;101386.04;105236;1262;71395;-52
2023/09/11 04:43:23;;;;;;;17.60;8.50;;;;;;;10.61;100.00;101388.57;105277;1264;61705;-52
2023/09/11 04:45:51;;;;;;;23.50;9.00;;;;;;;10.89;100.00;101384.81;105230;1263;59536;-50
2023/09/11 04:48:19;;;;;;;22.30;9.10;;;;;;;11.02;100.00;101382.86;105220;1258;71801;-51
2023/09/11 04:50:47;;;;;;;21.20;10.20;;;;;;;11.05;100.00;101385.41;105337;1264;63177;-49
2023/09/11 04:53:15;;;;;;;22.00;9.80;;;;;;;11.08;100.00;101386.62;105215;1266;70405;-50
2023/09/11 04:55:42;;;;;;;27.20;10.20;;;;;;;11.12;100.00;101389.88;105201;1260;59952;-52
2023/09/11 04:58:10;;;;;;;17.10;8.50;;;;;;;11.17;100.00;101392.61;105237;1264;59974;-50
2023/09/11 05:00:40;;;;;;;19.20;9.90;;;;;;;11.22;100.00;101394.31;105229;1260;73012;-51
2023/09/11 05:03:08;;;;;;;19.40;9.50;;;;;;;11.19;100.00;101397.27;105259;1267;64408;-49
2023/09/11 05:05:40;;;;;;;30.10;11.50;;;;;;;11.17;100.00;101399.52;105231;1263;72627;-49
2023/09/11 05:08:09;;;;;;;33.70;10.50;;;;;;;11.15;100.00;101403.86;105263;1265;60282;-52
2023/09/11 05:10:43;;;;;;;30.90;10.50;;;;;;;11.16;100.00;101404.55;105256;1264;60014;-51
2023/09/11 05:13:13;;;;;;;32.50;10.30;;;;;;;11.15;100.00;101402.13;105405;1259;73034;-50
2023/09/11 05:15:41;;;;;;;23.30;10.80;;;;;;;11.15;100.00;101407.31;105304;1267;64486;-49
2023/09/11 05:18:10;;;;;;;21.50;11.20;;;;;;;11.17;100.00;101410.75;105220;1264;72705;-50
2023/09/11 05:20:38;;;;;;;32.60;10.80;;;;;;;11.21;100.00;101414.52;105263;1264;61595;-52
2023/09/11 05:23:06;;;;;;;23.70;9.80;;;;;;;11.27;100.00;101416.06;105349;1261;59525;-50
2023/09/11 05:25:34;;;;;;;18.00;8.90;;;;;;;11.32;100.00;101415.50;105337;1263;71806;-52
2023/09/11 05:28:02;;;;;;;17.20;9.20;;;;;;;11.37;100.00;101417.38;105267;1271;63246;-51
2023/09/11 05:30:30;;;;;;;13.70;10.70;;;;;;;11.42;100.00;101421.67;105242;1261;72624;-50
2023/09/11 05:32:58;;;;;;;17.00;10.00;;;;;;;11.46;100.00;101424.91;105262;1266;61696;-50
2023/09/11 05:35:26;;;;;;;19.00;9.80;;;;;;;11.52;100.00;101427.31;105266;1264;60348;-50
2023/09/11 05:37:54;;;;;;;13.70;8.80;;;;;;;11.59;100.00;101436.94;105356;1265;73862;-52
2023/09/11 05:40:21;;;;;;;12.20;9.60;;;;;;;11.67;100.00;101440.16;105279;1272;63201;-50
2023/09/11 05:42:50;;;;;;;18.10;10.10;;;;;;;11.74;100.00;101448.05;105225;1266;71400;-50
2023/09/11 05:45:17;;;;;;;21.10;9.90;;;;;;;11.84;100.00;101457.15;105250;1262;61876;-51
2023/09/11 05:47:45;;;;;;;14.50;9.40;;;;;;;11.95;100.00;101463.30;105292;1266;60829;-50
2023/09/11 05:50:14;;;;;;;18.60;10.10;;;;;;;12.07;100.00;101472.05;105278;1261;72602;-50
2023/09/11 05:52:42;;;;;;;17.70;9.10;;;;;;;12.19;100.00;101484.41;105303;1259;64568;-50
2023/09/11 05:55:09;;;;;;;22.50;9.80;;;;;;;12.27;100.00;101502.70;105228;1273;72617;-52
2023/09/11 05:57:37;;;;;;;13.00;9.40;;;;;;;12.32;100.00;101523.05;105246;1266;60763;-52
2023/09/11 06:00:12;;;;;;;14.40;9.20;;;;;;;12.39;100.00;101542.05;105239;1272;60449;-50
2023/09/11 06:02:40;;;;;;;23.30;9.80;;;;;;;12.44;100.00;101566.23;105308;1264;74797;-51
2023/09/11 06:05:08;;;;;;;18.20;10.30;;;;;;;12.53;100.00;101586.08;105266;1264;64779;-50
2023/09/11 06:07:36;;;;;;;22.20;9.70;;;;;;;12.60;100.00;101611.27;105226;1271;72727;-50
2023/09/11 06:10:04;;;;;;;14.90;9.10;;;;;;;12.68;100.00;101635.98;105442;1264;61589;-52
2023/09/11 06:12:32;;;;;;;12.50;8.80;;;;;;;12.78;100.00;101653.05;105412;1261;60339;-51
2023/09/11 06:14:59;;;;;;;21.30;10.10;;;;;;;12.86;100.00;101675.33;105231;1261;72629;-51
2023/09/11 06:17:28;;;;;;;17.10;10.10;;;;;;;12.95;100.00;101694.48;105359;1263;63188;-50
2023/09/11 06:20:11;;;;;;;16.80;9.00;;;;;;;13.06;100.00;101718.48;105366;1264;71359;-52
2023/09/11 06:22:38;;;;;;;12.40;9.10;;;;;;;13.17;100.00;101741.44;105259;1260;61644;-51
2023/09/11 06:25:07;;;;;;;12.80;8.30;;;;;;;13.26;100.00;101761.80;105227;1261;60358;-51
2023/09/11 06:27:35;;;;;;;18.50;9.40;;;;;;;13.37;100.00;101783.37;105279;1259;72594;-50
2023/09/11 06:30:05;;;;;;;13.70;8.30;;;;;;;13.48;100.00;101803.77;105265;1265;63123;-52
2023/09/11 06:32:33;;;;;;;13.20;8.70;;;;;;;13.59;100.00;101824.30;105232;1264;72591;-51
2023/09/11 06:35:01;;;;;;;18.80;8.60;;;;;;;13.72;100.00;101838.75;105241;1261;60558;-51
2023/09/11 06:37:29;;;;;;;17.80;8.00;;;;;;;13.87;100.00;101845.55;105253;1264;60619;-50
2023/09/11 06:39:57;;;;;;;22.50;8.50;;;;;;;13.99;100.00;101857.41;105372;1263;72670;-51
2023/09/11 06:42:25;;;;;;;13.00;8.70;;;;;;;14.11;100.00;101866.48;105260;1268;63317;-51
2023/09/11 06:44:53;;;;;;;16.40;8.40;;;;;;;14.22;100.00;101866.34;105228;1259;72647;-50
2023/09/11 06:47:21;;;;;;;12.50;7.50;;;;;;;14.36;100.00;101869.16;105262;1263;61615;-51
2023/09/11 06:49:49;;;;;;;9.70;7.40;;;;;;;14.50;100.00;101862.73;105263;1263;60781;-52
2023/09/11 06:52:17;;;;;;;15.60;8.20;;;;;;;14.64;100.00;101849.18;105260;1264;72896;-53
2023/09/11 06:54:45;;;;;;;19.90;7.90;;;;;;;14.73;100.00;101815.89;105247;1261;62738;-54
2023/09/11 06:57:13;;;;;;;19.80;7.20;;;;;;;14.84;100.00;101790.73;105247;1260;71475;-49
2023/09/11 06:59:41;;;;;;;12.20;7.00;;;;;;;14.96;100.00;101759.60;105224;1264;60482;-56
2023/09/11 07:02:09;;;;;;;9.80;6.40;;;;;;;15.09;100.00;101707.25;105277;1264;60404;-50
2023/09/11 07:04:38;;;;;;;10.30;6.60;;;;;;;15.22;100.00;101657.80;105294;1264;71653;-50
2023/09/11 07:07:06;;;;;;;18.40;7.10;;;;;;;15.37;100.00;101559.62;105237;1264;63134;-50
2023/09/11 07:09:34;;;;;;;12.00;6.20;;;;;;;15.49;100.00;101444.38;105185;1261;72725;-51
2023/09/11 07:12:04;;;;;;;11.00;6.50;;;;;;;15.61;100.00;101342.00;105279;1264;60515;-53
2023/09/11 07:14:32;;;;;;;13.80;6.80;;;;;;;15.74;100.00;101281.98;105399;1261;60519;-50
2023/09/11 07:17:03;;;;;;;14.60;6.70;;;;;;;15.90;100.00;101265.23;105267;1260;72590;-51
2023/09/11 07:19:30;;;;;;;9.90;6.30;;;;;;;16.07;100.00;101241.77;105387;1264;63253;-50
2023/09/11 07:21:58;;;;;;;12.70;6.40;;;;;;;16.26;100.00;101185.66;105404;1261;70591;-51
2023/09/11 07:24:26;;;;;;;15.90;5.90;;;;;;;16.45;100.00;101118.54;105231;1264;61836;-50
2023/09/11 07:26:54;;;;;;;16.80;6.60;;;;;;;16.66;100.00;101074.83;105274;1264;60348;-50
2023/09/11 07:29:26;;;;;;;27.00;7.60;;;;;;;16.79;100.00;100969.45;105254;1257;73799;-50
2023/09/11 07:31:55;;;;;;;10.80;6.40;;;;;;;16.89;100.00;100879.85;105491;1257;63240;-49
2023/09/11 07:34:23;;;;;;;18.90;6.60;;;;;;;17.02;100.00;100842.11;105495;1262;70857;-50
2023/09/11 07:36:50;;;;;;;8.20;5.40;;;;;;;17.15;100.00;100823.30;105247;1264;60423;-50
2023/09/11 07:39:19;;;;;;;13.70;5.50;;;;;;;17.25;100.00;100793.39;105297;1263;60445;-49
2023/09/11 07:41:48;;;;;;;51.00;8.10;;;;;;;17.41;100.00;100790.13;105260;1263;72973;-51
2023/09/11 07:44:15;;;;;;;6.30;5.20;;;;;;;17.60;100.00;100790.58;105533;1257;63145;-49
2023/09/11 07:46:44;;;;;;;6.00;5.50;;;;;;;17.74;100.00;100795.75;105324;1263;71394;-51
2023/09/11 07:49:12;;;;;;;6.40;5.30;;;;;;;17.86;100.00;100821.43;105236;1260;60474;-49
2023/09/11 07:51:39;;;;;;;7.50;5.20;;;;;;;17.95;100.00;100838.30;105288;1263;60499;-49
2023/09/11 07:54:07;;;;;;;13.50;5.70;;;;;;;18.04;100.00;100860.99;105487;1263;72646;-51
2023/09/11 07:56:37;;;;;;;5.60;5.10;;;;;;;18.23;100.00;100867.87;105505;1264;63315;-49
2023/09/11 07:59:05;;;;;;;8.10;4.50;;;;;;;18.36;100.00;100915.84;105522;1262;72638;-49
2023/09/11 08:01:33;;;;;;;9.20;4.80;;;;;;;18.50;100.00;100968.34;105281;1260;60410;-53
2023/09/11 08:04:02;;;;;;;6.00;4.80;;;;;;;18.61;100.00;101019.96;105242;1258;60342;-49
2023/09/11 08:06:30;;;;;;;9.20;4.50;;;;;;;18.75;100.00;101059.42;105282;1257;72629;-49
2023/09/11 08:09:03;;;;;;;7.60;4.50;;;;;;;18.85;100.00;101098.85;105523;1262;64472;-51
2023/09/11 08:11:31;;;;;;;11.00;5.10;;;;;;;18.93;100.00;101126.82;105638;1254;74609;-49
2023/09/11 08:13:59;;;;;;;7.10;4.60;;;;;;;19.02;100.00;101138.89;105667;1257;60543;-51
2023/09/11 08:16:29;;;;;;;5.70;4.20;;;;;;;19.16;100.00;101148.08;105684;1254;62151;-49
2023/09/11 08:18:57;;;;;;;11.90;4.90;;;;;;;19.30;100.00;101156.39;105596;1259;74089;-51
2023/09/11 08:21:26;;;;;;;4.80;4.20;;;;;;;19.51;100.00;101148.29;105672;1254;63301;-51
2023/09/11 08:23:54;;;;;;;8.80;5.00;;;;;;;19.69;99.20;101139.80;105635;1259;72394;-50
2023/09/11 08:26:21;;;;;;;10.10;4.70;;;;;;;19.85;91.22;101142.22;105620;1260;62387;-50
2023/09/11 08:28:49;;;;;;;6.30;4.20;;;;;;;19.83;81.98;101149.84;105617;1260;60328;-52
2023/09/11 08:31:17;;;;;;;4.30;3.90;;;;;;;19.80;79.61;101158.00;105608;1254;74943;-51
2023/09/11 08:33:45;;;;;;;5.30;4.20;;;;;;;19.94;77.88;101155.81;105613;1260;63104;-51
2023/09/11 08:36:22;;;;;;;5.20;4.10;;;;;;;20.17;76.84;101160.00;105600;1259;71483;-52
2023/09/11 08:38:50;;;;;;;4.50;3.60;;;;;;;20.38;74.05;101131.86;105594;1259;60551;-52
2023/09/11 08:41:19;;;;;;;3.90;3.60;;;;;;;20.42;72.82;101141.14;105664;1260;60832;-51
2023/09/11 08:43:47;;;;;;;8.80;4.40;;;;;;;20.60;71.57;101135.31;105617;1254;72582;-48
2023/09/11 08:46:17;;;;;;;5.60;4.20;;;;;;;20.84;69.98;101113.30;105641;1259;66770;-51
2023/09/11 08:48:48;;;;;;;6.30;4.70;;;;;;;21.03;71.55;101163.55;105603;1256;71369;-52
2023/09/11 08:51:19;;;;;;;8.50;4.40;;;;;;;21.31;72.23;101167.90;105658;1256;60614;-52
2023/09/11 08:53:47;;;;;;;5.10;4.00;;;;;;;21.62;71.16;101138.17;105651;1259;60518;-51
2023/09/11 08:56:15;;;;;;;7.00;3.90;;;;;;;21.83;68.30;101077.73;105600;1260;72584;-51
2023/09/11 08:58:42;;;;;;;6.10;3.90;;;;;;;21.84;66.38;101048.50;105651;1260;64376;-49
2023/09/11 09:01:10;;;;;;;4.90;3.50;;;;;;;21.88;66.89;101097.30;105572;1260;71482;-51
2023/09/11 09:03:39;;;;;;;4.90;4.20;;;;;;;21.97;65.31;101040.17;105601;1254;60793;-52
2023/09/11 09:06:07;;;;;;;7.20;4.20;;;;;;;21.97;62.55;100953.59;105628;1260;60410;-50
2023/09/11 09:08:35;;;;;;;9.00;4.30;;;;;;;22.07;64.77;101081.80;105615;1260;76081;-50
2023/09/11 09:11:03;;;;;;;8.80;4.10;;;;;;;22.39;64.11;101047.80;105647;1259;64579;-50
2023/09/11 09:13:33;;;;;;;8.50;4.00;;;;;;;22.55;60.43;100872.84;105599;1254;71429;-51
2023/09/11 09:16:02;;;;;;;4.80;3.20;;;;;;;22.48;59.55;100856.38;105654;1261;60429;-52
2023/09/11 09:18:30;;;;;;;4.20;3.80;;;;;;;22.44;57.71;100755.00;105672;1258;60426;-51
2023/09/11 09:20:58;;;;;;;3.70;3.40;;;;;;;22.23;59.05;100895.12;105625;1254;72546;-55
2023/09/11 09:23:33;;;;;;;4.00;3.70;;;;;;;22.28;57.51;100805.70;105615;1260;63134;-54
2023/09/11 09:26:07;;;;;;;3.30;3.00;;;;;;;22.06;58.98;100935.84;105503;1254;72734;-51
2023/09/11 09:28:35;;;;;;;8.90;3.90;;;;;;;22.35;61.21;101084.94;105696;1259;60543;-51
2023/09/11 09:31:04;;;;;;;6.80;3.30;;;;;;;22.77;60.87;101030.44;105650;1260;60419;-50
2023/09/11 09:33:32;;;;;;;5.60;3.60;;;;;;;23.18;60.22;100980.11;105630;1254;72709;-52
2023/09/11 09:36:00;;;;;;;7.90;3.40;;;;;;;23.57;59.33;100919.88;105652;1254;63164;-49
2023/09/11 09:38:28;;;;;;;7.70;3.80;;;;;;;23.88;57.38;100770.66;105606;1259;71454;-52
2023/09/11 09:40:56;;;;;;;4.30;3.30;;;;;;;24.12;58.53;100880.66;105592;1254;60472;-52
2023/09/11 09:43:23;;;;;;;5.50;3.60;;;;;;;24.42;56.88;100747.33;105610;1254;60378;-51
2023/09/11 09:45:51;;;;;;;6.80;3.50;;;;;;;24.61;55.62;100650.21;105618;1254;72593;-51
2023/09/11 09:48:19;;;;;;;8.90;3.70;;;;;;;24.74;54.93;100622.86;105642;1260;63898;-51
2023/09/11 09:50:47;;;;;;;7.60;3.40;;;;;;;24.73;54.51;100584.41;105627;1254;71394;-51
2023/09/11 09:53:21;;;;;;;5.90;2.90;;;;;;;24.84;53.18;100481.95;105601;1261;60532;-53
2023/09/11 09:55:49;;;;;;;13.10;3.50;;;;;;;24.92;52.10;100371.41;105653;1257;60435;-51
2023/09/11 09:58:24;;;;;;;8.50;3.60;;;;;;;24.84;51.84;100395.84;105644;1258;73875;-51
2023/09/11 10:01:05;;;;;;;10.30;3.70;;;;;;;24.60;49.79;100165.26;105676;1254;63640;-51
2023/09/11 10:03:45;;;;;;;6.00;3.60;;;;;;;24.12;50.50;100236.42;105639;1257;71962;-50
2023/09/11 10:06:21;;;;;;;13.20;3.50;;;;;;;24.04;51.16;100408.56;105674;1259;60496;-50
2023/09/11 10:09:05;;;;;;;10.90;3.10;;;;;;;23.85;51.13;100401.46;105660;1255;60355;-52
2023/09/11 10:11:34;;;;;;;8.20;2.90;;;;;;;23.60;52.15;100563.94;105647;1254;72652;-51
2023/09/11 10:14:03;;;;;;;3.10;2.80;;;;;;;23.66;52.00;100573.69;105695;1260;64135;-51
2023/09/11 10:16:31;;;;;;;9.40;3.40;;;;;;;23.81;51.35;100488.39;105631;1261;72962;-53
2023/09/11 10:19:01;;;;;;;5.20;3.20;;;;;;;23.80;51.89;100542.89;105668;1254;60650;-51
2023/09/11 10:21:29;;;;;;;10.90;3.10;;;;;;;24.08;53.34;100720.33;105711;1254;60545;-51
2023/09/11 10:23:58;;;;;;;10.60;3.30;;;;;;;24.47;52.98;100669.56;105644;1254;72713;-50
2023/09/11 10:26:30;;;;;;;15.20;3.60;;;;;;;24.72;53.27;100702.68;105652;1260;64460;-51
2023/09/11 10:29:02;;;;;;;8.20;3.30;;;;;;;24.92;51.99;100551.93;105599;1254;72398;-50
2023/09/11 10:31:33;;;;;;;4.40;3.20;;;;;;;25.13;51.65;100485.92;105630;1255;62454;-52
2023/09/11 10:34:01;;;;;;;5.60;2.80;;;;;;;25.16;48.17;100067.81;105638;1254;60950;-52
2023/09/11 10:36:40;;;;;;;3.00;2.80;;;;;;;24.96;47.23;99902.08;105628;1254;73758;-51
2023/09/11 10:39:08;;;;;;;10.90;2.90;;;;;;;24.66;47.87;99986.82;105651;1254;64574;-51
2023/09/11 10:41:37;;;;;;;8.20;4.20;;;;;;;24.68;49.13;100196.50;105586;1259;72547;-51
2023/09/11 10:44:05;;;;;;;6.10;3.10;;;;;;;24.84;47.93;100093.77;105665;1254;60474;-50
2023/09/11 10:46:38;;;;;;;6.00;3.10;;;;;;;24.84;47.40;99978.63;105601;1254;60372;-53
2023/09/11 10:49:16;;;;;;;4.90;2.40;;;;;;;24.87;46.58;99866.02;105688;1260;73815;-52
2023/09/11 10:51:47;;;;;;;5.30;3.10;;;;;;;25.01;46.03;99815.75;105665;1260;64619;-51
2023/09/11 10:54:16;;;;;;;6.20;2.90;;;;;;;24.97;46.34;99838.25;105644;1254;73189;-52
2023/09/11 10:56:44;;;;;;;11.20;3.50;;;;;;;24.93;47.09;99958.25;105664;1260;60541;-52
2023/09/11 10:59:14;;;;;;;4.80;3.10;;;;;;;24.99;47.55;100046.16;105733;1254;61092;-50
2023/09/11 11:01:44;;;;;;;5.50;2.80;;;;;;;25.00;49.33;100271.42;105650;1261;75087;-51
2023/09/11 11:04:13;;;;;;;8.60;3.30;;;;;;;25.10;49.93;100430.38;105633;1260;63238;-51
2023/09/11 11:06:45;;;;;;;6.90;3.50;;;;;;;25.02;49.60;100369.35;105629;1254;72567;-52
2023/09/11 11:09:32;;;;;;;9.10;4.00;;;;;;;24.92;49.79;100424.04;105693;1254;61210;-52
2023/09/11 11:12:13;;;;;;;4.60;3.20;;;;;;;24.83;50.62;100520.52;105671;1259;60514;-54
2023/09/11 11:14:41;;;;;;;13.10;3.10;;;;;;;24.75;49.43;100393.08;105668;1259;73832;-53
2023/09/11 11:17:12;;;;;;;18.60;3.40;;;;;;;24.73;50.73;100529.73;105663;1259;66616;-51
2023/09/11 11:20:00;;;;;;;9.70;3.20;;;;;;;24.98;50.74;100576.38;105600;1254;73134;-51
2023/09/11 11:22:33;;;;;;;7.20;3.60;;;;;;;24.93;50.11;100470.35;105669;1260;60496;-54